createdAt,value
2018-04-09T00:02:24.409Z,8.10
2018-04-09T00:04:52.778Z,6.30
2018-04-09T00:07:21.491Z,4.83
2018-04-09T00:09:50.291Z,6.53
2018-04-09T00:12:19.829Z,7.33
2018-04-09T00:14:48.721Z,6.27
2018-04-09T00:17:18.819Z,6.00
2018-04-09T00:19:48.182Z,8.37
2018-04-09T00:22:19.052Z,13.17
2018-04-09T00:24:48.500Z,8.93
2018-04-09T00:27:16.746Z,5.10
2018-04-09T00:29:45.437Z,7.63
2018-04-09T00:32:14.449Z,6.00
2018-04-09T00:34:43.960Z,4.83
2018-04-09T00:37:12.416Z,7.17
2018-04-09T00:39:40.689Z,5.00
2018-04-09T00:42:09.071Z,7.37
2018-04-09T00:44:37.640Z,6.07
2018-04-09T00:47:07.567Z,4.40
2018-04-09T00:49:35.975Z,5.80
2018-04-09T00:52:04.747Z,4.77
2018-04-09T00:54:34.241Z,5.57
2018-04-09T00:57:03.308Z,5.63
2018-04-09T00:59:31.564Z,3.90
2018-04-09T01:02:00.806Z,4.23
2018-04-09T01:04:28.984Z,6.43
2018-04-09T01:06:58.023Z,5.80
2018-04-09T01:09:26.596Z,4.03
2018-04-09T01:11:54.900Z,4.60
2018-04-09T01:14:25.638Z,6.83
2018-04-09T01:16:53.970Z,6.50
2018-04-09T01:19:22.641Z,5.07
2018-04-09T01:21:52.002Z,6.40
2018-04-09T01:24:20.364Z,5.27
2018-04-09T01:26:48.827Z,4.73
2018-04-09T01:29:17.084Z,4.80
2018-04-09T01:31:45.676Z,5.17
2018-04-09T01:34:14.548Z,4.23
2018-04-09T01:36:43.559Z,7.23
2018-04-09T01:39:11.940Z,4.43
2018-04-09T01:41:40.614Z,5.03
2018-04-09T01:44:08.982Z,6.80
2018-04-09T01:46:37.665Z,6.40
2018-04-09T01:49:05.985Z,4.47
2018-04-09T01:51:34.051Z,5.17
2018-04-09T01:54:02.194Z,5.43
2018-04-09T01:56:30.725Z,4.33
2018-04-09T01:58:59.477Z,4.80
2018-04-09T02:01:27.751Z,4.73
2018-04-09T02:03:56.107Z,4.10
2018-04-09T02:06:24.399Z,4.10
2018-04-09T02:08:52.710Z,4.37
2018-04-09T02:11:20.782Z,3.90
2018-04-09T02:13:49.739Z,4.23
2018-04-09T02:16:19.216Z,6.57
2018-04-09T02:18:47.960Z,5.10
2018-04-09T02:21:16.207Z,4.20
2018-04-09T02:23:44.382Z,4.73
2018-04-09T02:26:13.020Z,4.57
2018-04-09T02:28:42.848Z,4.37
2018-04-09T02:31:11.191Z,5.60
2018-04-09T02:33:39.427Z,7.33
2018-04-09T02:36:07.934Z,5.00
2018-04-09T02:38:36.194Z,4.20
2018-04-09T02:41:05.522Z,6.93
2018-04-09T02:43:34.076Z,5.60
2018-04-09T02:46:03.984Z,6.97
2018-04-09T02:48:32.217Z,7.00
2018-04-09T02:51:01.254Z,4.30
2018-04-09T02:53:29.413Z,4.63
2018-04-09T02:55:57.622Z,4.23
2018-04-09T02:58:26.156Z,3.63
2018-04-09T03:00:54.996Z,3.73
2018-04-09T03:03:23.152Z,4.83
2018-04-09T03:05:51.726Z,4.43
2018-04-09T03:08:20.273Z,6.60
2018-04-09T03:10:49.207Z,3.87
2018-04-09T03:13:18.329Z,4.03
2018-04-09T03:15:47.013Z,5.83
2018-04-09T03:18:15.101Z,4.73
2018-04-09T03:20:43.246Z,5.43
2018-04-09T03:23:11.516Z,3.30
2018-04-09T03:25:40.482Z,7.37
2018-04-09T03:28:09.824Z,4.40
2018-04-09T03:30:38.194Z,4.93
2018-04-09T03:33:06.182Z,4.77
2018-04-09T03:35:35.065Z,4.63
2018-04-09T03:38:03.237Z,4.50
2018-04-09T03:40:31.600Z,4.00
2018-04-09T03:42:59.874Z,4.03
2018-04-09T03:45:28.181Z,5.53
2018-04-09T03:47:56.437Z,3.83
2018-04-09T03:50:25.879Z,5.30
2018-04-09T03:52:54.103Z,3.70
2018-04-09T03:55:22.315Z,4.17
2018-04-09T03:57:50.573Z,5.17
2018-04-09T04:00:19.707Z,4.87
2018-04-09T04:02:48.264Z,5.73
2018-04-09T04:05:16.448Z,7.40
2018-04-09T04:07:44.816Z,5.07
2018-04-09T04:10:13.258Z,4.27
2018-04-09T04:12:41.794Z,5.43
2018-04-09T04:15:10.117Z,5.57
2018-04-09T04:17:38.431Z,3.97
2018-04-09T04:20:06.762Z,3.30
2018-04-09T04:22:35.154Z,3.37
2018-04-09T04:25:03.356Z,3.70
2018-04-09T04:27:31.442Z,4.10
2018-04-09T04:30:00.134Z,4.40
2018-04-09T04:32:29.208Z,3.63
2018-04-09T04:34:57.972Z,3.03
2018-04-09T04:37:27.005Z,3.67
2018-04-09T04:39:56.092Z,4.60
2018-04-09T04:42:24.561Z,4.30
2018-04-09T04:44:53.655Z,4.10
2018-04-09T04:47:22.305Z,4.00
2018-04-09T04:49:50.963Z,3.83
2018-04-09T04:52:19.794Z,3.77
2018-04-09T04:54:47.996Z,3.73
2018-04-09T04:57:16.365Z,3.80
2018-04-09T04:59:44.628Z,3.73
2018-04-09T05:02:13.181Z,3.30
2018-04-09T05:04:42.612Z,4.17
2018-04-09T05:07:11.091Z,3.37
2018-04-09T05:09:40.556Z,4.93
2018-04-09T05:12:09.696Z,3.53
2018-04-09T05:14:38.318Z,3.40
2018-04-09T05:17:06.471Z,3.67
2018-04-09T05:19:34.723Z,3.03
2018-04-09T05:22:03.206Z,3.73
2018-04-09T05:24:32.026Z,3.60
2018-04-09T05:27:00.703Z,3.10
2018-04-09T05:29:28.895Z,2.97
2018-04-09T05:31:57.066Z,4.03
2018-04-09T05:34:25.583Z,3.70
2018-04-09T05:36:53.793Z,3.43
2018-04-09T05:39:22.996Z,4.17
2018-04-09T05:41:51.193Z,3.90
2018-04-09T05:44:20.062Z,3.23
2018-04-09T05:46:48.019Z,5.20
2018-04-09T05:49:16.196Z,3.73
2018-04-09T05:51:44.488Z,3.33
2018-04-09T05:54:12.979Z,4.60
2018-04-09T05:56:40.963Z,3.90
2018-04-09T05:59:10.527Z,3.60
2018-04-09T06:01:39.148Z,3.67
2018-04-09T06:04:07.336Z,3.80
2018-04-09T06:06:36.428Z,4.10
2018-04-09T06:09:05.007Z,3.43
2018-04-09T06:11:33.146Z,3.60
2018-04-09T06:14:01.456Z,3.60
2018-04-09T06:16:29.686Z,4.13
2018-04-09T06:18:57.781Z,5.93
2018-04-09T06:21:26.364Z,3.30
2018-04-09T06:23:54.333Z,3.23
2018-04-09T06:26:22.332Z,4.83
2018-04-09T06:28:50.662Z,3.40
2018-04-09T06:31:19.241Z,3.30
2018-04-09T06:33:47.469Z,3.47
2018-04-09T06:36:16.357Z,3.53
2018-04-09T06:38:45.411Z,3.50
2018-04-09T06:41:14.166Z,3.63
2018-04-09T06:43:42.664Z,4.17
2018-04-09T06:46:10.887Z,7.00
2018-04-09T06:48:39.243Z,3.50
2018-04-09T06:51:07.432Z,4.03
2018-04-09T06:53:36.399Z,3.90
2018-04-09T06:56:04.489Z,3.40
2018-04-09T06:58:33.524Z,3.97
2018-04-09T07:01:01.864Z,3.57
2018-04-09T07:03:31.450Z,3.67
2018-04-09T07:06:00.348Z,4.30
2018-04-09T07:08:28.611Z,3.37
2018-04-09T07:10:56.708Z,5.17
2018-04-09T07:13:24.994Z,3.33
2018-04-09T07:15:53.287Z,3.43
2018-04-09T07:18:21.526Z,3.53
2018-04-09T07:20:49.659Z,3.43
2018-04-09T07:23:17.698Z,3.70
2018-04-09T07:25:46.554Z,3.03
2018-04-09T07:28:14.741Z,3.00
2018-04-09T07:30:42.699Z,3.40
2018-04-09T07:33:10.994Z,4.63
2018-04-09T07:35:39.994Z,4.03
2018-04-09T07:38:08.550Z,3.40
2018-04-09T07:40:36.941Z,3.10
2018-04-09T07:43:05.528Z,3.70
2018-04-09T07:45:34.444Z,3.43
2018-04-09T07:48:02.876Z,4.53
2018-04-09T07:50:31.071Z,5.70
2018-04-09T07:52:59.432Z,5.60
2018-04-09T07:55:27.533Z,3.93
2018-04-09T07:57:55.899Z,4.83
2018-04-09T08:00:24.389Z,4.67
2018-04-09T08:02:53.280Z,4.47
2018-04-09T08:05:21.645Z,4.43
2018-04-09T08:07:49.966Z,5.70
2018-04-09T08:10:18.939Z,4.70
2018-04-09T08:12:47.193Z,6.33
2018-04-09T08:15:15.396Z,4.20
2018-04-09T08:17:43.760Z,5.20
2018-04-09T08:20:11.929Z,5.83
2018-04-09T08:22:40.302Z,5.33
2018-04-09T08:25:08.600Z,4.70
2018-04-09T08:27:37.334Z,4.60
2018-04-09T08:30:05.334Z,4.33
2018-04-09T08:32:35.296Z,6.30
2018-04-09T08:35:04.372Z,5.47
2018-04-09T08:37:33.299Z,4.77
2018-04-09T08:40:02.731Z,4.10
2018-04-09T08:42:30.971Z,4.53
2018-04-09T08:44:59.364Z,5.30
2018-04-09T08:47:27.563Z,4.97
2018-04-09T08:49:55.973Z,4.33
2018-04-09T08:52:24.111Z,4.60
2018-04-09T08:54:53.041Z,3.70
2018-04-09T08:57:21.304Z,4.77
2018-04-09T08:59:49.454Z,4.00
2018-04-09T09:02:17.870Z,4.90
2018-04-09T09:04:47.375Z,4.17
2018-04-09T09:07:15.495Z,4.30
2018-04-09T09:09:44.000Z,5.53
2018-04-09T09:12:12.267Z,4.83
2018-04-09T09:14:41.257Z,5.00
2018-04-09T09:17:09.656Z,5.43
2018-04-09T09:19:38.442Z,6.47
2018-04-09T09:22:06.711Z,6.13
2018-04-09T09:24:34.882Z,7.63
2018-04-09T09:27:03.794Z,8.10
2018-04-09T09:29:32.289Z,10.83
2018-04-09T09:32:00.436Z,8.80
2018-04-09T09:34:28.805Z,9.00
2018-04-09T09:36:57.391Z,7.80
2018-04-09T09:39:25.783Z,9.17
2018-04-09T09:41:54.161Z,7.90
2018-04-09T09:44:23.034Z,9.63
2018-04-09T09:46:51.316Z,7.50
2018-04-09T09:49:20.454Z,9.00
2018-04-09T09:51:48.726Z,9.70
2018-04-09T09:54:17.322Z,9.20
2018-04-09T09:56:45.760Z,8.67
2018-04-09T09:59:14.154Z,9.17
2018-04-09T10:01:42.239Z,12.00
2018-04-09T10:04:10.743Z,8.00
2018-04-09T10:06:39.803Z,9.07
2018-04-09T10:09:08.300Z,9.77
2018-04-09T10:11:36.462Z,13.23
2018-04-09T10:14:05.531Z,9.73
2018-04-09T10:16:33.609Z,8.60
2018-04-09T10:19:02.365Z,8.97
2018-04-09T10:21:30.874Z,9.53
2018-04-09T10:23:58.998Z,9.47
2018-04-09T10:26:27.322Z,9.50
2018-04-09T10:28:55.491Z,9.53
2018-04-09T10:31:23.910Z,10.10
2018-04-09T10:33:52.993Z,9.03
2018-04-09T10:36:21.279Z,10.50
2018-04-09T10:38:50.181Z,8.73
2018-04-09T10:41:18.462Z,9.10
2018-04-09T10:43:47.492Z,9.43
2018-04-09T10:46:16.387Z,9.20
2018-04-09T10:48:45.651Z,9.80
2018-04-09T10:51:14.788Z,9.20
2018-04-09T10:53:42.753Z,9.77
2018-04-09T10:56:11.348Z,9.20
2018-04-09T10:58:39.878Z,9.20
2018-04-09T11:01:08.199Z,8.17
2018-04-09T11:03:36.884Z,11.17
2018-04-09T11:06:05.261Z,8.63
2018-04-09T11:08:33.641Z,10.60
2018-04-09T11:11:02.437Z,11.97
2018-04-09T11:13:30.598Z,12.57
2018-04-09T11:15:59.934Z,8.50
2018-04-09T11:18:29.656Z,8.50
2018-04-09T11:20:57.802Z,7.87
2018-04-09T11:23:26.073Z,12.27
2018-04-09T11:25:54.436Z,7.23
2018-04-09T11:28:23.136Z,8.23
2018-04-09T11:30:51.434Z,9.53
2018-04-09T11:33:20.604Z,8.67
2018-04-09T11:35:49.126Z,8.60
2018-04-09T11:38:17.235Z,8.60
2018-04-09T11:40:46.072Z,10.50
2018-04-09T11:43:14.328Z,8.60
2018-04-09T11:45:42.501Z,13.70
2018-04-09T11:48:10.950Z,6.00
2018-04-09T11:50:39.054Z,6.30
2018-04-09T11:53:08.068Z,6.03
2018-04-09T11:55:36.125Z,5.67
2018-04-09T11:58:05.325Z,5.80
2018-04-09T12:00:33.419Z,5.90
2018-04-09T12:03:01.782Z,10.03
2018-04-09T12:05:30.698Z,7.13
2018-04-09T12:07:59.541Z,6.67
2018-04-09T12:10:27.757Z,7.07
2018-04-09T12:12:55.925Z,6.70
2018-04-09T12:15:24.169Z,7.77
2018-04-09T12:17:52.448Z,8.13
2018-04-09T12:20:20.865Z,7.10
2018-04-09T12:22:49.267Z,7.20
2018-04-09T12:25:18.316Z,9.40
2018-04-09T12:27:46.589Z,7.93
2018-04-09T12:30:14.778Z,11.07
2018-04-09T12:32:43.018Z,9.03
2018-04-09T12:35:11.714Z,9.03
2018-04-09T12:37:39.994Z,7.87
2018-04-09T12:40:07.966Z,8.67
2018-04-09T12:42:36.332Z,7.90
2018-04-09T12:45:04.662Z,9.37
2018-04-09T12:47:33.502Z,6.90
2018-04-09T12:50:01.932Z,9.47
2018-04-09T12:52:30.788Z,8.60
2018-04-09T12:55:00.189Z,7.53
2018-04-09T12:57:29.810Z,8.80
2018-04-09T12:59:58.060Z,16.17
2018-04-09T13:02:27.293Z,7.80
2018-04-09T13:04:55.606Z,11.13
2018-04-09T13:07:24.219Z,8.17
2018-04-09T13:09:52.738Z,7.50
2018-04-09T13:12:22.017Z,8.30
2018-04-09T13:14:50.378Z,7.50
2018-04-09T13:17:19.302Z,7.10
2018-04-09T13:19:49.024Z,9.27
2018-04-09T13:22:17.147Z,11.33
2018-04-09T13:24:46.283Z,13.17
2018-04-09T13:27:14.933Z,12.63
2018-04-09T13:29:43.568Z,10.03
2018-04-09T13:32:11.886Z,20.73
2018-04-09T13:34:40.166Z,12.30
2018-04-09T13:37:08.764Z,14.73
2018-04-09T13:39:36.824Z,12.53
2018-04-09T13:42:07.523Z,14.47
2018-04-09T13:44:35.794Z,13.83
2018-04-09T13:47:04.016Z,19.13
2018-04-09T13:49:32.296Z,23.73
2018-04-09T13:52:00.393Z,14.40
2018-04-09T13:54:28.751Z,12.33
2018-04-09T13:56:57.119Z,17.77
2018-04-09T13:59:25.283Z,14.20
2018-04-09T14:01:54.628Z,17.20
2018-04-09T14:04:23.168Z,12.70
2018-04-09T14:06:51.913Z,14.70
2018-04-09T14:09:20.155Z,16.27
2018-04-09T14:11:49.362Z,11.67
2018-04-09T14:14:17.568Z,16.40
2018-04-09T14:16:45.927Z,15.60
2018-04-09T14:19:13.881Z,16.67
2018-04-09T14:21:43.136Z,13.50
2018-04-09T14:24:12.546Z,13.93
2018-04-09T14:26:40.853Z,18.80
2018-04-09T14:29:09.288Z,16.43
2018-04-09T14:31:38.932Z,18.40
2018-04-09T14:34:07.162Z,16.93
2018-04-09T14:36:35.701Z,13.30
2018-04-09T14:39:03.769Z,14.40
2018-04-09T14:41:32.957Z,18.27
2018-04-09T14:44:02.056Z,14.27
2018-04-09T14:46:30.957Z,12.50
2018-04-09T14:49:00.792Z,15.73
2018-04-09T14:51:29.131Z,17.47
2018-04-09T14:53:57.266Z,14.87
2018-04-09T14:56:25.793Z,12.07
2018-04-09T14:58:54.215Z,17.20
2018-04-09T15:01:22.547Z,14.60
2018-04-09T15:03:50.733Z,16.87
2018-04-09T15:06:18.752Z,11.93
2018-04-09T15:08:47.865Z,12.20
2018-04-09T15:11:17.773Z,15.37
2018-04-09T15:13:46.315Z,13.17
2018-04-09T15:16:14.355Z,12.80
2018-04-09T15:18:43.516Z,13.70
2018-04-09T15:21:11.833Z,13.30
2018-04-09T15:23:40.114Z,14.20
2018-04-09T15:26:09.522Z,14.77
2018-04-09T15:28:37.683Z,14.00
2018-04-09T15:31:06.706Z,17.70
2018-04-09T15:33:34.862Z,14.10
2018-04-09T15:36:02.815Z,11.53
2018-04-09T15:38:31.939Z,16.50
2018-04-09T15:41:00.156Z,15.77
2018-04-09T15:43:28.624Z,13.60
2018-04-09T15:45:56.739Z,15.13
2018-04-09T15:48:25.745Z,12.43
2018-04-09T15:50:53.714Z,11.63
2018-04-09T15:53:21.992Z,10.23
2018-04-09T15:55:50.367Z,12.77
2018-04-09T15:58:18.639Z,12.37
2018-04-09T16:00:46.693Z,13.93
2018-04-09T16:03:15.380Z,13.10
2018-04-09T16:05:44.565Z,11.20
2018-04-09T16:08:13.466Z,12.13
2018-04-09T16:10:41.865Z,13.70
2018-04-09T16:13:09.926Z,10.77
2018-04-09T16:15:38.402Z,10.70
2018-04-09T16:18:07.291Z,14.70
2018-04-09T16:20:36.120Z,12.20
2018-04-09T16:23:04.292Z,11.30
2018-04-09T16:25:32.579Z,16.63
2018-04-09T16:28:00.825Z,10.57
2018-04-09T16:30:29.840Z,12.33
2018-04-09T16:32:58.007Z,13.30
2018-04-09T16:35:26.346Z,14.83
2018-04-09T16:37:57.125Z,11.37
2018-04-09T16:40:27.354Z,9.97
2018-04-09T16:42:56.538Z,14.33
2018-04-09T16:45:24.709Z,16.97
2018-04-09T16:47:53.180Z,11.00
2018-04-09T16:50:22.054Z,10.40
2018-04-09T16:52:50.244Z,12.63
2018-04-09T16:55:18.528Z,12.10
2018-04-09T16:57:46.883Z,10.73
2018-04-09T17:00:14.868Z,12.70
2018-04-09T17:02:43.674Z,12.37
2018-04-09T17:05:12.231Z,10.60
2018-04-09T17:07:40.307Z,9.63
2018-04-09T17:10:09.215Z,8.90
2018-04-09T17:12:37.497Z,9.47
2018-04-09T17:15:05.880Z,10.93
2018-04-09T17:17:34.252Z,10.10
2018-04-09T17:20:02.416Z,9.17
2018-04-09T17:22:31.181Z,8.73
2018-04-09T17:24:59.348Z,9.60
2018-04-09T17:27:28.265Z,10.67
2018-04-09T17:29:56.248Z,9.67
2018-04-09T17:32:24.396Z,8.73
2018-04-09T17:34:53.285Z,13.97
2018-04-09T17:37:21.458Z,10.43
2018-04-09T17:39:49.966Z,12.07
2018-04-09T17:42:18.757Z,10.30
2018-04-09T17:44:47.535Z,11.43
2018-04-09T17:47:15.718Z,10.67
2018-04-09T17:49:43.874Z,9.93
2018-04-09T17:52:12.056Z,8.97
2018-04-09T17:54:41.062Z,10.03
2018-04-09T17:57:09.959Z,8.43
2018-04-09T17:59:38.118Z,9.37
2018-04-09T18:02:06.900Z,10.23
2018-04-09T18:04:35.184Z,8.40
2018-04-09T18:07:03.449Z,10.27
2018-04-09T18:09:31.854Z,11.37
2018-04-09T18:11:59.994Z,9.30
2018-04-09T18:14:28.408Z,9.40
2018-04-09T18:16:56.674Z,9.23
2018-04-09T18:19:24.719Z,9.87
2018-04-09T18:21:52.818Z,8.40
2018-04-09T18:24:21.380Z,9.70
2018-04-09T18:26:50.304Z,9.43
2018-04-09T18:29:19.558Z,9.10
2018-04-09T18:31:47.776Z,8.73
2018-04-09T18:34:17.211Z,9.40
2018-04-09T18:36:45.850Z,8.53
2018-04-09T18:39:13.930Z,11.27
2018-04-09T18:41:42.075Z,9.80
2018-04-09T18:44:09.944Z,8.60
2018-04-09T18:46:38.952Z,9.73
2018-04-09T18:49:07.012Z,11.63
2018-04-09T18:51:35.426Z,11.30
2018-04-09T18:54:03.864Z,10.63
2018-04-09T18:56:32.372Z,16.63
2018-04-09T18:59:01.036Z,10.10
2018-04-09T19:01:29.243Z,10.27
2018-04-09T19:03:57.627Z,9.53
2018-04-09T19:06:25.796Z,9.20
2018-04-09T19:08:54.989Z,10.40
2018-04-09T19:11:23.252Z,9.90
2018-04-09T19:13:51.931Z,10.00
2018-04-09T19:16:20.305Z,10.03
2018-04-09T19:18:48.786Z,9.37
2018-04-09T19:21:17.695Z,9.83
2018-04-09T19:23:46.294Z,9.30
2018-04-09T19:26:15.084Z,9.63
2018-04-09T19:28:44.685Z,10.33
2018-04-09T19:31:13.064Z,10.63
2018-04-09T19:33:41.440Z,9.90
2018-04-09T19:36:10.308Z,9.33
2018-04-09T19:38:38.364Z,11.50
2018-04-09T19:41:07.426Z,10.67
2018-04-09T19:43:35.884Z,11.17
2018-04-09T19:46:04.130Z,9.87
2018-04-09T19:48:32.237Z,10.73
2018-04-09T19:51:00.061Z,11.83
2018-04-09T19:53:29.005Z,11.07
2018-04-09T19:55:57.259Z,10.63
2018-04-09T19:58:25.746Z,9.57
2018-04-09T20:00:53.686Z,11.07
2018-04-09T20:03:22.314Z,9.83
2018-04-09T20:05:50.472Z,10.20
2018-04-09T20:08:19.420Z,9.93
2018-04-09T20:10:47.590Z,10.67
2018-04-09T20:13:15.678Z,12.97
2018-04-09T20:15:43.973Z,10.80
2018-04-09T20:18:12.546Z,9.73
2018-04-09T20:20:41.704Z,8.63
2018-04-09T20:23:09.709Z,8.80
2018-04-09T20:25:38.417Z,9.00
2018-04-09T20:28:06.771Z,8.50
2018-04-09T20:30:35.782Z,7.77
2018-04-09T20:33:04.631Z,8.47
2018-04-09T20:35:33.599Z,7.90
2018-04-09T20:38:01.773Z,7.63
2018-04-09T20:40:30.120Z,7.63
2018-04-09T20:42:58.408Z,7.60
2018-04-09T20:45:27.316Z,7.77
2018-04-09T20:47:55.627Z,8.00
2018-04-09T20:50:24.051Z,7.57
2018-04-09T20:52:52.502Z,6.40
2018-04-09T20:55:20.673Z,6.73
2018-04-09T20:57:49.286Z,6.90
2018-04-09T21:00:17.974Z,7.27
2018-04-09T21:02:46.558Z,8.00
2018-04-09T21:05:14.635Z,10.00
2018-04-09T21:07:43.208Z,6.87
2018-04-09T21:10:11.428Z,7.47
2018-04-09T21:12:40.495Z,8.17
2018-04-09T21:15:08.849Z,6.77
2018-04-09T21:17:37.319Z,6.87
2018-04-09T21:20:05.391Z,6.33
2018-04-09T21:22:33.692Z,6.97
2018-04-09T21:25:02.475Z,9.00
2018-04-09T21:27:30.744Z,7.03
2018-04-09T21:29:58.915Z,7.10
2018-04-09T21:32:27.586Z,7.83
2018-04-09T21:34:56.116Z,7.50
2018-04-09T21:37:24.855Z,7.30
2018-04-09T21:39:53.800Z,7.90
2018-04-09T21:42:22.094Z,6.33
2018-04-09T21:44:51.136Z,6.40
2018-04-09T21:47:19.387Z,7.07
2018-04-09T21:49:48.589Z,6.67
2018-04-09T21:52:17.457Z,6.57
2018-04-09T21:54:45.453Z,6.60
2018-04-09T21:57:14.486Z,6.83
2018-04-09T21:59:43.668Z,7.40
2018-04-09T22:02:12.959Z,6.63
2018-04-09T22:04:41.846Z,6.77
2018-04-09T22:07:10.401Z,8.53
2018-04-09T22:09:38.583Z,7.53
2018-04-09T22:12:07.827Z,8.13
2018-04-09T22:14:36.007Z,8.70
2018-04-09T22:17:04.867Z,9.23
2018-04-09T22:19:33.888Z,10.07
2018-04-09T22:22:02.600Z,8.70
2018-04-09T22:24:30.827Z,11.53
2018-04-09T22:26:59.404Z,10.57
2018-04-09T22:29:27.777Z,9.00
2018-04-09T22:31:55.995Z,9.53
2018-04-09T22:34:24.337Z,11.10
2018-04-09T22:36:52.905Z,8.07
2018-04-09T22:39:21.814Z,8.10
2018-04-09T22:41:50.595Z,7.60
2018-04-09T22:44:18.856Z,8.70
2018-04-09T22:46:47.244Z,8.13
2018-04-09T22:49:15.308Z,8.87
2018-04-09T22:51:43.436Z,8.60
2018-04-09T22:54:11.707Z,7.60
2018-04-09T22:56:40.974Z,7.20
2018-04-09T22:59:10.192Z,12.00
2018-04-09T23:01:38.676Z,8.80
2018-04-09T23:04:07.927Z,7.50
2018-04-09T23:06:36.329Z,7.90
2018-04-09T23:09:06.590Z,6.27
2018-04-09T23:13:56.061Z,7.40
2018-04-09T23:16:24.099Z,6.40
2018-04-09T23:18:53.083Z,8.17
2018-04-09T23:21:21.153Z,10.20
2018-04-09T23:23:49.227Z,11.10
2018-04-09T23:26:17.901Z,8.90
2018-04-09T23:28:45.923Z,11.40
2018-04-09T23:31:14.506Z,13.10
2018-04-09T23:33:43.712Z,10.97
2018-04-09T23:36:11.662Z,12.03
2018-04-09T23:38:39.919Z,9.10
2018-04-09T23:41:07.947Z,13.50
2018-04-09T23:43:36.903Z,10.57
2018-04-09T23:46:05.698Z,10.27
2018-04-09T23:48:34.676Z,11.63
2018-04-09T23:51:02.968Z,12.97
2018-04-09T23:53:31.728Z,12.13
2018-04-09T23:56:00.615Z,8.13
2018-04-09T23:58:29.212Z,11.17
